createdAt,value
2023-04-22T00:02:14.637Z,100.00
2023-04-22T00:04:47.466Z,100.00
2023-04-22T00:07:18.263Z,100.00
2023-04-22T00:09:47.854Z,100.00
2023-04-22T00:12:17.458Z,100.00
2023-04-22T00:14:46.939Z,100.00
2023-04-22T00:17:16.474Z,100.00
2023-04-22T00:19:48.584Z,100.00
2023-04-22T00:22:18.065Z,100.00
2023-04-22T00:24:47.580Z,100.00
2023-04-22T00:27:17.110Z,100.00
2023-04-22T00:29:46.611Z,100.00
2023-04-22T00:32:16.159Z,100.00
2023-04-22T00:34:48.274Z,100.00
2023-04-22T00:37:17.762Z,100.00
2023-04-22T00:39:47.300Z,100.00
2023-04-22T00:42:17.044Z,100.00
2023-04-22T00:44:47.039Z,100.00
2023-04-22T00:47:16.803Z,100.00
2023-04-22T00:49:49.567Z,100.00
2023-04-22T00:52:19.040Z,100.00
2023-04-22T00:54:49.783Z,100.00
2023-04-22T00:57:20.164Z,100.00
2023-04-22T00:59:49.837Z,100.00
2023-04-22T01:02:19.724Z,100.00
2023-04-22T01:04:54.249Z,100.00
2023-04-22T01:07:24.214Z,100.00
2023-04-22T01:09:54.099Z,100.00
2023-04-22T01:12:23.621Z,100.00
2023-04-22T01:14:53.237Z,100.00
2023-04-22T01:17:24.885Z,100.00
2023-04-22T01:19:57.161Z,100.00
2023-04-22T01:22:27.460Z,100.00
2023-04-22T01:24:59.570Z,100.00
2023-04-22T01:27:29.329Z,100.00
2023-04-22T01:29:59.013Z,100.00
2023-04-22T01:32:30.855Z,100.00
2023-04-22T01:35:00.724Z,100.00
2023-04-22T01:37:31.556Z,100.00
2023-04-22T01:40:03.882Z,100.00
2023-04-22T01:42:33.905Z,100.00
2023-04-22T01:45:03.538Z,100.00
2023-04-22T01:47:33.538Z,100.00
2023-04-22T01:50:03.262Z,100.00
2023-04-22T01:52:33.638Z,100.00
2023-04-22T01:55:05.946Z,100.00
2023-04-22T01:57:35.453Z,100.00
2023-04-22T02:00:05.684Z,100.00
2023-04-22T02:02:35.324Z,100.00
2023-04-22T02:05:05.172Z,100.00
2023-04-22T02:07:34.721Z,100.00
2023-04-22T02:10:06.980Z,100.00
2023-04-22T02:12:36.559Z,100.00
2023-04-22T02:15:07.110Z,100.00
2023-04-22T02:17:37.033Z,100.00
2023-04-22T02:20:07.613Z,100.00
2023-04-22T02:22:37.171Z,100.00
2023-04-22T02:25:11.009Z,100.00
2023-04-22T02:27:40.541Z,100.00
2023-04-22T02:30:11.334Z,100.00
2023-04-22T02:32:40.901Z,100.00
2023-04-22T02:35:11.362Z,100.00
2023-04-22T02:37:40.982Z,100.00
2023-04-22T02:40:14.457Z,100.00
2023-04-22T02:42:44.015Z,100.00
2023-04-22T02:45:14.381Z,100.00
2023-04-22T02:47:44.005Z,100.00
2023-04-22T02:50:14.147Z,100.00
2023-04-22T02:52:43.620Z,100.00
2023-04-22T02:55:15.786Z,100.00
2023-04-22T02:57:46.030Z,100.00
2023-04-22T03:00:16.538Z,100.00
2023-04-22T03:02:46.328Z,100.00
2023-04-22T03:05:16.143Z,100.00
2023-04-22T03:07:47.605Z,100.00
2023-04-22T03:10:19.682Z,100.00
2023-04-22T03:12:49.256Z,100.00
2023-04-22T03:15:21.234Z,100.00
2023-04-22T03:17:51.264Z,100.00
2023-04-22T03:20:20.977Z,100.00
2023-04-22T03:22:50.509Z,100.00
2023-04-22T03:25:22.845Z,100.00
2023-04-22T03:27:52.333Z,100.00
2023-04-22T03:30:22.098Z,100.00
2023-04-22T03:32:53.755Z,100.00
2023-04-22T03:35:23.318Z,100.00
2023-04-22T03:37:52.874Z,100.00
2023-04-22T03:40:25.313Z,100.00
2023-04-22T03:42:54.810Z,100.00
2023-04-22T03:45:24.329Z,100.00
2023-04-22T03:47:53.868Z,100.00
2023-04-22T03:50:23.488Z,100.00
2023-04-22T03:52:52.976Z,100.00
2023-04-22T03:55:25.366Z,100.00
2023-04-22T03:57:54.918Z,100.00
2023-04-22T04:00:24.473Z,100.00
2023-04-22T04:02:54.177Z,100.00
2023-04-22T04:05:24.134Z,100.00
2023-04-22T04:07:53.729Z,100.00
2023-04-22T04:10:25.835Z,100.00
2023-04-22T04:12:55.320Z,100.00
2023-04-22T04:15:24.922Z,100.00
2023-04-22T04:17:56.354Z,100.00
2023-04-22T04:20:26.009Z,100.00
2023-04-22T04:22:55.509Z,100.00
2023-04-22T04:25:29.473Z,100.00
2023-04-22T04:27:59.146Z,100.00
2023-04-22T04:30:28.718Z,100.00
2023-04-22T04:32:58.477Z,100.00
2023-04-22T04:35:28.574Z,100.00
2023-04-22T04:37:59.411Z,100.00
2023-04-22T04:40:32.095Z,100.00
2023-04-22T04:43:02.716Z,100.00
2023-04-22T04:45:32.523Z,100.00
2023-04-22T04:48:02.894Z,100.00
2023-04-22T04:50:32.477Z,100.00
2023-04-22T04:53:02.583Z,100.00
2023-04-22T04:55:34.703Z,100.00
2023-04-22T04:58:04.284Z,100.00
2023-04-22T05:00:33.837Z,100.00
2023-04-22T05:03:03.704Z,100.00
2023-04-22T05:05:33.596Z,100.00
2023-04-22T05:08:03.128Z,100.00
2023-04-22T05:13:13.728Z,100.00
2023-04-22T05:15:41.996Z,100.00
2023-04-22T05:18:10.309Z,100.00
2023-04-22T05:20:38.585Z,100.00
2023-04-22T05:23:06.984Z,100.00
2023-04-22T05:25:35.250Z,100.00
2023-04-22T05:28:03.415Z,100.00
2023-04-22T05:30:35.564Z,100.00
2023-04-22T05:33:05.137Z,100.00
2023-04-22T05:35:34.660Z,100.00
2023-04-22T05:38:04.723Z,100.00
2023-04-22T05:40:34.253Z,100.00
2023-04-22T05:43:04.026Z,100.00
2023-04-22T05:45:36.654Z,100.00
2023-04-22T05:48:06.704Z,100.00
2023-04-22T05:50:36.556Z,100.00
2023-04-22T05:53:06.038Z,100.00
2023-04-22T05:55:35.575Z,100.00
2023-04-22T05:58:05.042Z,100.00
2023-04-22T06:00:37.167Z,100.00
2023-04-22T06:03:07.098Z,100.00
2023-04-22T06:05:36.714Z,100.00
2023-04-22T06:08:06.536Z,100.00
2023-04-22T06:10:36.101Z,100.00
2023-04-22T06:13:05.653Z,100.00
2023-04-22T06:15:37.957Z,100.00
2023-04-22T06:18:08.022Z,100.00
2023-04-22T06:20:37.636Z,100.00
2023-04-22T06:23:07.687Z,100.00
2023-04-22T06:25:37.273Z,100.00
2023-04-22T06:28:06.764Z,100.00
2023-04-22T06:30:38.881Z,100.00
2023-04-22T06:33:08.386Z,100.00
2023-04-22T06:35:37.979Z,100.00
2023-04-22T06:38:07.588Z,100.00
2023-04-22T06:40:37.128Z,100.00
2023-04-22T06:43:06.721Z,100.00
2023-04-22T06:45:39.218Z,100.00
2023-04-22T06:48:08.720Z,100.00
2023-04-22T06:50:38.821Z,100.00
2023-04-22T06:53:09.963Z,100.00
2023-04-22T06:55:39.632Z,100.00
2023-04-22T06:58:09.166Z,100.00
2023-04-22T07:00:41.290Z,100.00
2023-04-22T07:03:10.810Z,100.00
2023-04-22T07:05:40.582Z,100.00
2023-04-22T07:08:10.066Z,100.00
2023-04-22T07:10:39.609Z,100.00
2023-04-22T07:13:09.108Z,100.00
2023-04-22T07:15:41.279Z,100.00
2023-04-22T07:18:11.134Z,100.00
2023-04-22T07:20:40.688Z,100.00
2023-04-22T07:23:11.358Z,100.00
2023-04-22T07:25:40.868Z,100.00
2023-04-22T07:28:10.403Z,100.00
2023-04-22T07:30:42.485Z,100.00
2023-04-22T07:33:11.999Z,100.00
2023-04-22T07:35:41.480Z,100.00
2023-04-22T07:38:12.753Z,100.00
2023-04-22T07:40:44.028Z,100.00
2023-04-22T07:43:13.564Z,100.00
2023-04-22T07:45:45.885Z,100.00
2023-04-22T07:48:15.411Z,100.00
2023-04-22T07:50:44.886Z,100.00
2023-04-22T07:53:16.005Z,100.00
2023-04-22T07:55:45.526Z,100.00
2023-04-22T07:58:15.049Z,100.00
2023-04-22T08:00:47.161Z,100.00
2023-04-22T08:03:17.003Z,100.00
2023-04-22T08:05:46.816Z,100.00
2023-04-22T08:08:16.289Z,100.00
2023-04-22T08:10:45.897Z,100.00
2023-04-22T08:13:17.798Z,100.00
2023-04-22T08:15:50.738Z,100.00
2023-04-22T08:18:20.919Z,100.00
2023-04-22T08:20:50.822Z,100.00
2023-04-22T08:23:20.379Z,100.00
2023-04-22T08:25:50.404Z,100.00
2023-04-22T08:28:19.932Z,100.00
2023-04-22T08:30:52.130Z,100.00
2023-04-22T08:33:21.633Z,100.00
2023-04-22T08:35:51.395Z,100.00
2023-04-22T08:38:20.919Z,100.00
2023-04-22T08:40:50.886Z,100.00
2023-04-22T08:43:21.057Z,100.00
2023-04-22T08:45:53.608Z,100.00
2023-04-22T08:48:23.173Z,100.00
2023-04-22T08:50:53.080Z,100.00
2023-04-22T08:53:24.902Z,100.00
2023-04-22T08:55:54.747Z,100.00
2023-04-22T08:58:24.632Z,100.00
2023-04-22T09:00:58.038Z,100.00
2023-04-22T09:03:27.591Z,100.00
2023-04-22T09:05:58.161Z,100.00
2023-04-22T09:08:28.169Z,100.00
2023-04-22T09:10:58.004Z,100.00
2023-04-22T09:13:29.217Z,100.00
2023-04-22T09:16:04.450Z,100.00
2023-04-22T09:18:33.967Z,100.00
2023-04-22T09:21:03.569Z,100.00
2023-04-22T09:23:33.190Z,100.00
2023-04-22T09:26:02.732Z,100.00
2023-04-22T09:28:32.223Z,100.00
2023-04-22T09:31:06.149Z,100.00
2023-04-22T09:33:35.652Z,100.00
2023-04-22T09:36:11.906Z,100.00
2023-04-22T09:38:43.838Z,100.00
2023-04-22T09:41:13.575Z,100.00
2023-04-22T09:43:43.106Z,100.00
2023-04-22T09:46:15.509Z,100.00
2023-04-22T09:48:47.452Z,100.00
2023-04-22T09:51:18.912Z,99.35
2023-04-22T09:53:48.923Z,99.41
2023-04-22T09:56:18.381Z,100.00
2023-04-22T09:58:47.950Z,99.76
2023-04-22T10:01:20.112Z,99.89
2023-04-22T10:03:49.639Z,100.00
2023-04-22T10:06:19.463Z,99.35
2023-04-22T10:08:49.174Z,98.90
2023-04-22T10:11:18.723Z,98.32
2023-04-22T10:13:48.234Z,97.84
2023-04-22T10:16:21.982Z,97.75
2023-04-22T10:18:52.212Z,96.83
2023-04-22T10:21:22.901Z,96.51
2023-04-22T10:23:53.415Z,96.32
2023-04-22T10:26:50.672Z,97.71
2023-04-22T10:29:22.209Z,95.77
2023-04-22T10:31:58.624Z,95.34
2023-04-22T10:34:28.340Z,96.13
2023-04-22T10:36:59.872Z,97.13
2023-04-22T10:39:30.263Z,95.79
2023-04-22T10:42:10.268Z,95.82
2023-04-22T10:44:50.757Z,95.58
2023-04-22T10:47:33.495Z,96.46
2023-04-22T10:50:19.750Z,96.16
2023-04-22T10:52:52.026Z,95.79
2023-04-22T10:55:22.110Z,94.88
2023-04-22T10:57:53.424Z,94.43
2023-04-22T11:03:21.024Z,91.92
2023-04-22T11:05:50.802Z,93.82
2023-04-22T11:08:31.236Z,94.50
2023-04-22T11:11:13.776Z,93.11
2023-04-22T11:13:45.702Z,92.89
2023-04-22T11:16:16.497Z,92.45
2023-04-22T11:18:49.623Z,91.68
2023-04-22T11:21:19.904Z,91.08
2023-04-22T11:23:53.487Z,91.64
2023-04-22T11:26:37.799Z,92.48
2023-04-22T11:29:07.464Z,92.18
2023-04-22T11:31:38.311Z,90.85
2023-04-22T11:34:12.148Z,92.58
2023-04-22T11:36:41.687Z,91.80
2023-04-22T11:39:16.884Z,91.25
2023-04-22T11:41:46.532Z,91.14
2023-04-22T11:44:17.458Z,91.83
2023-04-22T11:46:47.905Z,90.63
2023-04-22T11:49:20.448Z,91.28
2023-04-22T11:51:57.746Z,90.39
2023-04-22T11:54:35.018Z,90.85
2023-04-22T11:57:06.250Z,90.25
2023-04-22T11:59:36.076Z,90.53
2023-04-22T12:02:08.355Z,90.61
2023-04-22T12:04:44.652Z,90.33
2023-04-22T12:07:14.212Z,89.41
2023-04-22T12:09:43.770Z,88.72
2023-04-22T12:12:13.409Z,89.61
2023-04-22T12:14:43.654Z,88.91
2023-04-22T12:17:13.729Z,87.63
2023-04-22T12:19:49.831Z,88.04
2023-04-22T12:22:27.163Z,87.15
2023-04-22T12:24:56.963Z,87.76
2023-04-22T12:27:26.514Z,85.95
2023-04-22T12:29:57.389Z,85.40
2023-04-22T12:32:30.962Z,85.60
2023-04-22T12:35:03.187Z,85.66
2023-04-22T12:37:32.972Z,85.16
2023-04-22T12:40:02.527Z,83.88
2023-04-22T12:42:32.110Z,84.40
2023-04-22T12:45:01.841Z,83.18
2023-04-22T12:47:31.616Z,84.21
2023-04-22T12:50:06.941Z,85.27
2023-04-22T12:52:37.687Z,85.19
2023-04-22T12:55:07.985Z,82.74
2023-04-22T12:57:38.173Z,81.60
2023-04-22T13:00:14.525Z,82.90
2023-04-22T13:02:45.222Z,84.09
2023-04-22T13:05:17.572Z,83.04
2023-04-22T13:07:59.669Z,81.87
2023-04-22T13:10:36.253Z,80.42
2023-04-22T13:15:41.232Z,80.84
2023-04-22T13:18:10.965Z,81.71
2023-04-22T13:20:43.879Z,82.63
2023-04-22T13:23:14.510Z,81.83
2023-04-22T13:25:44.222Z,80.97
2023-04-22T13:28:14.174Z,81.46
2023-04-22T13:30:43.867Z,80.99
2023-04-22T13:33:13.525Z,82.20
2023-04-22T13:35:46.307Z,83.13
2023-04-22T13:38:16.092Z,83.41
2023-04-22T13:40:45.730Z,82.95
2023-04-22T13:43:15.454Z,80.91
2023-04-22T13:45:45.128Z,80.89
2023-04-22T13:48:14.716Z,81.55
2023-04-22T13:50:46.881Z,80.76
2023-04-22T13:53:16.684Z,78.02
2023-04-22T13:55:46.482Z,79.48
2023-04-22T13:58:16.014Z,80.16
2023-04-22T14:00:45.800Z,79.28
2023-04-22T14:03:15.569Z,80.22
2023-04-22T14:05:47.851Z,80.74
2023-04-22T14:08:17.418Z,80.74
2023-04-22T14:10:47.124Z,80.64
2023-04-22T14:13:16.666Z,80.63
2023-04-22T14:15:46.418Z,80.83
2023-04-22T14:18:15.966Z,81.34
2023-04-22T14:20:48.341Z,82.49
2023-04-22T14:23:17.897Z,82.65
2023-04-22T14:25:48.527Z,82.89
2023-04-22T14:28:19.489Z,83.17
2023-04-22T14:30:49.113Z,83.57
2023-04-22T14:33:18.727Z,84.69
2023-04-22T14:35:50.930Z,84.24
2023-04-22T14:38:20.937Z,83.92
2023-04-22T14:40:50.901Z,84.72
2023-04-22T14:43:21.608Z,84.01
2023-04-22T14:45:51.262Z,83.88
2023-04-22T14:48:20.845Z,83.19
2023-04-22T14:50:53.194Z,81.70
2023-04-22T14:53:23.184Z,82.66
2023-04-22T14:55:52.798Z,82.38
2023-04-22T14:58:23.220Z,82.56
2023-04-22T15:00:53.173Z,82.70
2023-04-22T15:03:23.186Z,82.89
2023-04-22T15:05:55.477Z,82.77
2023-04-22T15:08:25.613Z,83.77
2023-04-22T15:10:55.807Z,83.96
2023-04-22T15:13:25.420Z,83.51
2023-04-22T15:15:55.070Z,83.49
2023-04-22T15:18:25.162Z,83.99
2023-04-22T15:20:57.325Z,84.22
2023-04-22T15:23:26.913Z,84.29
2023-04-22T15:25:57.122Z,84.23
2023-04-22T15:28:26.996Z,84.58
2023-04-22T15:30:56.637Z,84.24
2023-04-22T15:33:26.196Z,84.42
2023-04-22T15:35:58.452Z,84.94
2023-04-22T15:38:27.991Z,84.57
2023-04-22T15:40:57.775Z,83.93
2023-04-22T15:43:27.298Z,82.80
2023-04-22T15:45:56.882Z,83.67
2023-04-22T15:48:26.463Z,84.38
2023-04-22T15:50:58.612Z,83.98
2023-04-22T15:53:28.199Z,83.76
2023-04-22T15:55:58.285Z,83.95
2023-04-22T15:58:30.519Z,84.95
2023-04-22T16:01:17.385Z,85.23
2023-04-22T16:03:48.531Z,85.61
2023-04-22T16:06:21.378Z,85.30
2023-04-22T16:08:51.140Z,86.26
2023-04-22T16:11:20.745Z,86.11
2023-04-22T16:13:50.583Z,86.55
2023-04-22T16:16:20.393Z,87.69
2023-04-22T16:18:51.210Z,88.37
2023-04-22T16:21:23.305Z,88.86
2023-04-22T16:23:52.817Z,87.90
2023-04-22T16:26:22.426Z,87.71
2023-04-22T16:28:52.026Z,87.21
2023-04-22T16:31:23.140Z,87.76
2023-04-22T16:33:52.886Z,88.16
2023-04-22T16:36:25.030Z,87.29
2023-04-22T16:38:54.580Z,87.22
2023-04-22T16:41:24.123Z,87.58
2023-04-22T16:43:53.672Z,87.49
2023-04-22T16:46:23.308Z,87.34
2023-04-22T16:48:52.871Z,87.56
2023-04-22T16:51:25.031Z,88.06
2023-04-22T16:53:54.546Z,87.82
2023-04-22T16:56:24.393Z,87.54
2023-04-22T16:58:54.464Z,87.24
2023-04-22T17:01:24.256Z,87.99
2023-04-22T17:03:54.381Z,88.00
2023-04-22T17:06:27.582Z,88.52
2023-04-22T17:08:57.282Z,88.78
2023-04-22T17:11:26.923Z,89.38
2023-04-22T17:13:56.549Z,89.24
2023-04-22T17:16:26.467Z,89.30
2023-04-22T17:18:56.398Z,89.98
2023-04-22T17:21:28.929Z,90.44
2023-04-22T17:23:58.825Z,90.55
2023-04-22T17:26:28.466Z,90.82
2023-04-22T17:28:58.065Z,91.94
2023-04-22T17:31:27.737Z,92.17
2023-04-22T17:33:57.429Z,92.78
2023-04-22T17:36:29.926Z,92.64
2023-04-22T17:38:59.443Z,93.24
2023-04-22T17:41:29.211Z,93.89
2023-04-22T17:43:59.314Z,93.89
2023-04-22T17:46:29.038Z,93.41
2023-04-22T17:48:58.939Z,94.07
2023-04-22T17:51:31.620Z,94.10
2023-04-22T17:54:01.769Z,93.82
2023-04-22T17:56:31.279Z,94.69
2023-04-22T17:59:01.192Z,94.25
2023-04-22T18:01:31.940Z,95.06
2023-04-22T18:04:02.518Z,95.01
2023-04-22T18:06:34.811Z,95.45
2023-04-22T18:09:04.348Z,95.22
2023-04-22T18:11:34.054Z,95.20
2023-04-22T18:14:03.676Z,95.52
2023-04-22T18:16:33.307Z,95.14
2023-04-22T18:19:04.282Z,95.39
2023-04-22T18:21:39.658Z,95.97
2023-04-22T18:24:11.240Z,95.49
2023-04-22T18:26:40.837Z,95.74
2023-04-22T18:29:10.539Z,96.15
2023-04-22T18:31:40.195Z,96.46
2023-04-22T18:34:12.885Z,97.15
2023-04-22T18:36:45.354Z,97.38
2023-04-22T18:39:15.676Z,97.64
2023-04-22T18:41:45.432Z,97.81
2023-04-22T18:44:15.108Z,98.19
2023-04-22T18:46:44.974Z,98.52
2023-04-22T18:49:14.543Z,98.37
2023-04-22T18:51:48.882Z,98.39
2023-04-22T18:54:18.533Z,98.59
2023-04-22T18:56:48.073Z,98.93
2023-04-22T18:59:17.586Z,98.62
2023-04-22T19:01:47.360Z,99.16
2023-04-22T19:04:17.118Z,99.03
2023-04-22T19:06:49.276Z,99.26
2023-04-22T19:09:19.560Z,99.00
2023-04-22T19:11:49.114Z,99.28
2023-04-22T19:14:18.725Z,99.80
2023-04-22T19:16:48.417Z,99.26
2023-04-22T19:19:18.006Z,99.63
2023-04-22T19:21:50.316Z,99.09
2023-04-22T19:24:22.920Z,99.28
2023-04-22T19:26:54.620Z,99.69
2023-04-22T19:29:24.175Z,99.89
2023-04-22T19:31:54.230Z,100.00
2023-04-22T19:34:23.756Z,100.00
2023-04-22T19:36:56.002Z,100.00
2023-04-22T19:39:25.658Z,100.00
2023-04-22T19:41:55.247Z,100.00
2023-04-22T19:44:25.154Z,100.00
2023-04-22T19:46:55.197Z,100.00
2023-04-22T19:49:25.806Z,100.00
2023-04-22T19:51:59.565Z,100.00
2023-04-22T19:54:30.728Z,100.00
2023-04-22T19:57:02.306Z,100.00
2023-04-22T19:59:32.708Z,100.00
2023-04-22T20:02:02.620Z,100.00
2023-04-22T20:04:32.960Z,100.00
2023-04-22T20:07:05.724Z,100.00
2023-04-22T20:09:36.533Z,100.00
2023-04-22T20:12:06.681Z,100.00
2023-04-22T20:14:36.373Z,100.00
2023-04-22T20:17:06.520Z,100.00
2023-04-22T20:19:36.517Z,100.00
2023-04-22T20:22:09.800Z,100.00
2023-04-22T20:24:40.951Z,100.00
2023-04-22T20:27:10.724Z,100.00
2023-04-22T20:29:40.969Z,100.00
2023-04-22T20:32:11.628Z,100.00
2023-04-22T20:34:42.085Z,100.00
2023-04-22T20:37:15.460Z,100.00
2023-04-22T20:39:45.651Z,100.00
2023-04-22T20:42:15.446Z,100.00
2023-04-22T20:44:45.118Z,100.00
2023-04-22T20:47:14.976Z,100.00
2023-04-22T20:49:44.849Z,100.00
2023-04-22T20:52:17.064Z,100.00
2023-04-22T20:54:51.223Z,100.00
2023-04-22T20:57:20.774Z,100.00
2023-04-22T20:59:50.362Z,100.00
2023-04-22T21:02:20.467Z,100.00
2023-04-22T21:04:50.542Z,100.00
2023-04-22T21:07:24.642Z,100.00
2023-04-22T21:09:54.562Z,100.00
2023-04-22T21:12:24.909Z,100.00
2023-04-22T21:14:55.221Z,100.00
2023-04-22T21:17:28.164Z,100.00
2023-04-22T21:19:59.761Z,100.00
2023-04-22T21:22:36.298Z,100.00
2023-04-22T21:25:06.148Z,100.00
2023-04-22T21:27:36.489Z,100.00
2023-04-22T21:30:07.068Z,100.00
2023-04-22T21:32:40.620Z,100.00
2023-04-22T21:35:11.112Z,100.00
2023-04-22T21:37:43.237Z,100.00
2023-04-22T21:40:15.006Z,100.00
2023-04-22T21:42:49.313Z,100.00
2023-04-22T21:45:19.203Z,100.00
2023-04-22T21:47:48.882Z,100.00
2023-04-22T21:50:20.712Z,100.00
2023-04-22T21:52:53.145Z,100.00
2023-04-22T21:55:23.006Z,100.00
2023-04-22T21:57:52.600Z,100.00
2023-04-22T22:00:25.002Z,100.00
2023-04-22T22:02:54.798Z,100.00
2023-04-22T22:05:24.788Z,100.00
2023-04-22T22:07:59.388Z,100.00
2023-04-22T22:10:28.956Z,100.00
2023-04-22T22:12:58.492Z,100.00
2023-04-22T22:15:28.091Z,100.00
2023-04-22T22:17:57.701Z,100.00
2023-04-22T22:20:27.414Z,100.00
2023-04-22T22:22:59.552Z,100.00
2023-04-22T22:25:29.347Z,100.00
2023-04-22T22:27:59.000Z,100.00
2023-04-22T22:30:28.867Z,100.00
2023-04-22T22:32:58.677Z,100.00
2023-04-22T22:35:28.284Z,100.00
2023-04-22T22:38:00.988Z,100.00
2023-04-22T22:40:30.677Z,100.00
2023-04-22T22:43:00.440Z,100.00
2023-04-22T22:45:30.023Z,100.00
2023-04-22T22:47:59.616Z,100.00
2023-04-22T22:50:29.414Z,100.00
2023-04-22T22:53:01.623Z,100.00
2023-04-22T22:55:31.189Z,100.00
2023-04-22T22:58:00.789Z,100.00
2023-04-22T23:00:30.467Z,100.00
2023-04-22T23:03:00.126Z,100.00
2023-04-22T23:05:30.596Z,100.00
2023-04-22T23:08:02.728Z,100.00
2023-04-22T23:10:32.491Z,100.00
2023-04-22T23:13:02.229Z,100.00
2023-04-22T23:15:31.823Z,100.00
2023-04-22T23:18:01.421Z,100.00
2023-04-22T23:20:31.153Z,100.00
2023-04-22T23:23:03.470Z,100.00
2023-04-22T23:25:33.552Z,100.00
2023-04-22T23:28:04.929Z,100.00
2023-04-22T23:30:37.529Z,100.00
2023-04-22T23:33:07.989Z,100.00
2023-04-22T23:35:38.762Z,100.00
2023-04-22T23:38:12.694Z,100.00
2023-04-22T23:40:42.272Z,100.00
2023-04-22T23:43:11.962Z,100.00
2023-04-22T23:45:41.565Z,100.00
2023-04-22T23:48:11.495Z,100.00
2023-04-22T23:50:41.607Z,100.00
2023-04-22T23:53:13.752Z,100.00
2023-04-22T23:55:43.958Z,100.00
2023-04-22T23:58:14.181Z,100.00
